Terminal Aerodrome Forecast
Issued by NWS

Home | Current Version | Previous Version | Text Only | Print | Product List | Glossary On
Versions: 1 2 3 4 5 6 7 8 9 10 11 12 13 14 15 16 17 18
217
FTUS45 KRIW 302113 AAA
TAFCPR
TAF AMD
KCPR 302113Z 3021/0118 06013KT 5SM -SN BR SCT006 OVC015
     FM010000 05012KT P6SM -SNRA SCT008 OVC012
     FM010400 08008KT P6SM VCSH BKN010
     FM010900 08008KT P6SM VCFG BKN002
     FM011500 08007KT P6SM SCT015=

USA.gov is the U.S. government's official web portal to all federal, state and local government web resources and services.